createdAt,value
2023-02-01T00:00:53.904Z,99086.88
2023-02-01T00:03:40.783Z,99090.31
2023-02-01T00:06:27.988Z,99085.13
2023-02-01T00:09:15.958Z,99084.25
2023-02-01T00:12:02.922Z,99084.22
2023-02-01T00:14:50.325Z,99081.63
2023-02-01T00:17:37.460Z,99087.66
2023-02-01T00:20:24.593Z,99085.94
2023-02-01T00:23:11.504Z,99097.94
2023-02-01T00:25:58.294Z,99087.59
2023-02-01T00:28:45.313Z,99100.47
2023-02-01T00:31:32.687Z,99087.56
2023-02-01T00:34:19.740Z,99053.31
2023-02-01T00:37:06.932Z,99078.16
2023-02-01T00:39:54.015Z,98990.81
2023-02-01T00:42:40.838Z,99090.09
2023-02-01T00:45:28.264Z,99098.69
2023-02-01T00:48:15.084Z,99102.13
2023-02-01T00:51:05.390Z,99096.97
2023-02-01T00:53:52.766Z,99096.06
2023-02-01T00:56:40.270Z,99072.94
2023-02-01T00:59:27.133Z,99090.91
2023-02-01T01:02:14.165Z,99015.59
2023-02-01T01:05:01.614Z,99107.22
2023-02-01T01:07:49.180Z,99108.91
2023-02-01T01:10:36.737Z,99098.63
2023-02-01T01:13:23.818Z,99092.59
2023-02-01T01:16:10.750Z,99107.19
2023-02-01T01:18:58.769Z,99103.75
2023-02-01T01:21:46.709Z,99108.91
2023-02-01T01:24:33.807Z,99085.78
2023-02-01T01:27:20.818Z,99114.91
2023-02-01T01:30:07.707Z,99108.03
2023-02-01T01:32:54.610Z,99096.06
2023-02-01T01:35:41.585Z,99108.00
2023-02-01T01:38:30.560Z,99108.91
2023-02-01T01:41:17.652Z,99112.34
2023-02-01T01:44:11.233Z,99094.38
2023-02-01T01:46:59.225Z,99103.75
2023-02-01T01:49:47.116Z,99106.31
2023-02-01T01:52:34.866Z,99072.94
2023-02-01T01:55:22.384Z,99108.91
2023-02-01T01:58:17.178Z,99125.25
2023-02-01T02:01:05.684Z,99122.69
2023-02-01T02:04:03.176Z,99122.69
2023-02-01T02:07:17.362Z,99130.44
2023-02-01T02:10:05.143Z,99127.00
2023-02-01T02:12:52.730Z,99120.97
2023-02-01T02:15:40.915Z,99138.19
2023-02-01T02:18:56.452Z,99127.03
2023-02-01T02:21:57.501Z,99131.31
2023-02-01T02:25:22.089Z,99136.47
2023-02-01T02:28:50.545Z,99134.78
2023-02-01T02:31:43.530Z,99139.09
2023-02-01T02:34:55.971Z,99153.69
2023-02-01T02:37:51.928Z,99158.03
2023-02-01T02:41:03.375Z,99155.47
2023-02-01T02:43:55.048Z,99157.19
2023-02-01T02:47:07.607Z,99161.47
2023-02-01T02:50:13.565Z,99162.34
2023-02-01T02:53:10.536Z,99165.81
2023-02-01T02:55:41.370Z,99168.41
2023-02-01T02:58:28.201Z,99165.81
2023-02-01T03:01:15.993Z,99152.13
2023-02-01T03:04:09.948Z,99171.84
2023-02-01T03:06:39.971Z,99179.56
2023-02-01T03:09:15.110Z,99170.16
2023-02-01T03:12:07.180Z,99176.16
2023-02-01T03:14:59.505Z,99159.88
2023-02-01T03:17:54.692Z,99165.03
2023-02-01T03:20:43.518Z,99165.88
2023-02-01T03:23:35.637Z,99099.06
2023-02-01T03:26:25.016Z,99171.03
2023-02-01T03:29:21.120Z,99181.34
2023-02-01T03:32:08.186Z,99176.19
2023-02-01T03:34:56.287Z,99159.09
2023-02-01T03:37:46.795Z,99187.38
2023-02-01T03:40:36.127Z,99188.25
2023-02-01T03:43:28.505Z,99181.38
2023-02-01T03:46:21.128Z,99190.81
2023-02-01T03:49:11.035Z,99193.41
2023-02-01T03:52:02.130Z,99193.41
2023-02-01T03:54:49.597Z,99198.56
2023-02-01T03:57:45.312Z,99203.69
2023-02-01T04:00:44.966Z,99122.31
2023-02-01T04:03:31.952Z,99178.03
2023-02-01T04:06:19.444Z,99201.16
2023-02-01T04:09:06.517Z,99197.75
2023-02-01T04:11:53.492Z,99164.28
2023-02-01T04:14:40.452Z,99195.19
2023-02-01T04:17:27.410Z,99198.59
2023-02-01T04:20:14.532Z,99207.19
2023-02-01T04:23:01.428Z,99196.91
2023-02-01T04:25:48.492Z,99208.91
2023-02-01T04:28:35.474Z,99203.75
2023-02-01T04:31:22.519Z,99198.63
2023-02-01T04:34:09.489Z,99198.59
2023-02-01T04:36:56.592Z,99196.03
2023-02-01T04:39:43.561Z,99208.91
2023-02-01T04:42:30.793Z,99205.50
2023-02-01T04:45:17.585Z,99205.50
2023-02-01T04:48:04.618Z,99207.22
2023-02-01T04:50:51.537Z,99200.34
2023-02-01T04:53:38.623Z,99202.94
2023-02-01T04:56:25.974Z,99204.63
2023-02-01T04:59:12.898Z,99204.63
2023-02-01T05:01:59.946Z,99220.94
2023-02-01T05:04:47.017Z,99208.91
2023-02-01T05:07:34.214Z,99210.63
2023-02-01T05:10:21.526Z,99223.53
2023-02-01T05:13:07.269Z,99225.22
2023-02-01T05:15:54.431Z,99232.06
2023-02-01T05:18:41.395Z,99240.69
2023-02-01T05:21:28.574Z,99241.50
2023-02-01T05:24:30.579Z,99246.66
2023-02-01T05:27:17.702Z,99250.09
2023-02-01T05:30:04.864Z,99239.81
2023-02-01T05:32:52.394Z,99251.81
2023-02-01T05:35:39.800Z,99196.03
2023-02-01T05:38:26.720Z,99254.38
2023-02-01T05:41:13.731Z,99256.94
2023-02-01T05:44:00.594Z,99268.97
2023-02-01T05:46:50.013Z,99266.41
2023-02-01T05:49:37.080Z,99270.69
2023-02-01T05:52:24.154Z,99222.59
2023-02-01T05:55:11.057Z,99289.56
2023-02-01T05:57:57.952Z,99290.41
2023-02-01T06:00:45.251Z,99269.78
2023-02-01T06:03:32.202Z,99299.88
2023-02-01T06:06:19.186Z,99220.00
2023-02-01T06:09:06.965Z,99296.41
2023-02-01T06:11:53.963Z,99303.25
2023-02-01T06:14:41.233Z,99311.84
2023-02-01T06:17:28.168Z,99275.78
2023-02-01T06:20:15.106Z,99305.81
2023-02-01T06:23:02.287Z,99315.28
2023-02-01T06:25:49.411Z,99308.38
2023-02-01T06:28:36.525Z,99328.13
2023-02-01T06:31:30.326Z,99337.56
2023-02-01T06:34:17.959Z,99336.69
2023-02-01T06:37:05.429Z,99337.53
2023-02-01T06:39:52.321Z,99340.94
2023-02-01T06:42:39.541Z,99273.06
2023-02-01T06:45:27.313Z,99344.38
2023-02-01T06:48:14.241Z,99357.22
2023-02-01T06:51:01.112Z,99363.22
2023-02-01T06:53:48.467Z,99369.22
2023-02-01T06:56:35.403Z,99362.31
2023-02-01T06:59:25.752Z,99375.22
2023-02-01T07:01:52.861Z,99371.75
2023-02-01T07:04:19.890Z,99377.75
2023-02-01T07:06:46.752Z,99391.50
2023-02-01T07:09:14.781Z,99390.63
2023-02-01T07:11:45.099Z,99389.75
2023-02-01T07:14:12.305Z,99392.31
2023-02-01T07:16:39.446Z,99378.53
2023-02-01T07:19:06.349Z,99374.25
2023-02-01T07:21:33.416Z,99400.00
2023-02-01T07:24:20.339Z,99406.00
2023-02-01T07:27:07.219Z,99395.66
2023-02-01T07:29:54.151Z,99408.56
2023-02-01T07:32:41.117Z,99399.97
2023-02-01T07:35:28.369Z,99390.53
2023-02-01T07:38:15.318Z,99403.41
2023-02-01T07:41:02.921Z,99411.09
2023-02-01T07:43:50.916Z,99413.66
2023-02-01T07:46:37.840Z,99409.34
2023-02-01T07:49:24.749Z,99412.78
2023-02-01T07:52:11.643Z,99426.50
2023-02-01T07:54:58.645Z,99296.66
2023-02-01T07:57:45.635Z,99428.19
2023-02-01T08:00:32.454Z,99440.19
2023-02-01T08:03:20.000Z,99429.88
2023-02-01T08:06:07.042Z,99431.59
2023-02-01T08:08:54.046Z,99444.47
2023-02-01T08:11:42.512Z,99444.47
2023-02-01T08:14:29.519Z,99444.47
2023-02-01T08:17:16.396Z,99448.72
2023-02-01T08:20:03.303Z,99455.56
2023-02-01T08:22:54.628Z,99453.88
2023-02-01T08:25:42.100Z,99457.28
2023-02-01T08:28:29.300Z,99461.56
2023-02-01T08:31:16.230Z,99452.97
2023-02-01T08:34:04.603Z,99459.00
2023-02-01T08:36:52.141Z,99459.00
2023-02-01T08:39:39.185Z,99437.44
2023-02-01T08:42:24.861Z,99477.88
2023-02-01T08:45:12.246Z,99489.84
2023-02-01T08:47:59.304Z,99483.84
2023-02-01T08:50:46.934Z,99484.72
2023-02-01T08:53:33.842Z,99463.25
2023-02-01T08:56:21.748Z,99388.44
2023-02-01T08:59:04.640Z,99476.16
2023-02-01T09:01:31.659Z,99484.75
2023-02-01T09:03:58.738Z,99484.75
2023-02-01T09:06:25.718Z,99486.47
2023-02-01T09:08:52.841Z,99372.91
2023-02-01T09:11:22.647Z,99484.78
2023-02-01T09:13:49.922Z,99479.63
2023-02-01T09:16:17.127Z,99488.25
2023-02-01T09:18:56.146Z,99483.13
2023-02-01T09:21:51.255Z,99477.97
2023-02-01T09:24:38.275Z,99485.72
2023-02-01T09:27:25.378Z,99488.31
2023-02-01T09:30:12.485Z,99496.06
2023-02-01T09:32:59.525Z,99498.63
2023-02-01T09:35:46.558Z,99494.38
2023-02-01T09:38:36.444Z,99503.81
2023-02-01T09:41:57.827Z,99497.84
2023-02-01T09:45:09.583Z,99501.28
2023-02-01T09:48:01.142Z,99498.72
2023-02-01T09:50:58.018Z,99515.91
2023-02-01T09:54:03.941Z,99456.56
2023-02-01T09:57:16.241Z,99511.69
2023-02-01T10:00:10.371Z,99521.16
2023-02-01T10:03:01.111Z,99526.31
2023-02-01T10:06:12.566Z,99523.78
2023-02-01T10:09:21.087Z,99525.50
2023-02-01T10:12:53.870Z,99527.22
2023-02-01T10:16:03.947Z,99524.69
2023-02-01T10:19:25.688Z,99523.00
2023-02-01T10:21:59.861Z,99535.06
2023-02-01T10:24:38.368Z,99516.16
2023-02-01T10:27:21.917Z,99534.22
2023-02-01T10:30:16.365Z,99535.09
2023-02-01T10:33:03.633Z,99539.38
2023-02-01T10:35:55.015Z,99538.56
2023-02-01T10:38:54.143Z,99499.88
2023-02-01T10:41:42.914Z,99542.91
2023-02-01T10:44:47.169Z,99535.16
2023-02-01T10:47:33.977Z,99546.38
2023-02-01T10:50:27.078Z,99544.69
2023-02-01T10:53:47.324Z,99552.44
2023-02-01T10:56:34.630Z,99549.00
2023-02-01T10:59:04.340Z,99545.56
2023-02-01T11:02:21.908Z,99554.19
2023-02-01T11:05:08.805Z,99561.94
2023-02-01T11:07:56.958Z,99560.22
2023-02-01T11:11:01.968Z,99554.19
2023-02-01T11:13:52.082Z,99561.09
2023-02-01T11:16:39.722Z,99556.81
2023-02-01T11:19:27.541Z,99563.69
2023-02-01T11:22:16.969Z,99562.81
2023-02-01T11:25:07.357Z,99576.59
2023-02-01T11:27:55.692Z,99578.28
2023-02-01T11:31:05.095Z,99580.03
2023-02-01T11:33:54.904Z,99557.66
2023-02-01T11:36:48.524Z,99558.50
2023-02-01T11:39:51.465Z,99580.00
2023-02-01T11:42:38.982Z,99580.88
2023-02-01T11:45:47.232Z,99580.88
2023-02-01T11:48:37.490Z,99592.84
2023-02-01T11:51:43.623Z,99597.16
2023-02-01T11:54:26.173Z,99581.66
2023-02-01T11:57:13.246Z,99555.88
2023-02-01T12:00:06.363Z,99615.19
2023-02-01T12:02:58.856Z,99609.13
2023-02-01T12:06:04.208Z,99618.59
2023-02-01T12:09:23.883Z,99612.56
2023-02-01T12:12:25.357Z,99615.09
2023-02-01T12:15:43.486Z,99615.06
2023-02-01T12:19:09.360Z,99620.22
2023-02-01T12:22:24.558Z,99632.28
2023-02-01T12:25:02.541Z,99614.16
2023-02-01T12:27:32.121Z,99626.19
2023-02-01T12:29:59.102Z,99625.31
2023-02-01T12:32:55.416Z,99624.47
2023-02-01T12:35:39.750Z,99630.44
2023-02-01T12:38:18.783Z,99643.38
2023-02-01T12:41:04.397Z,99650.25
2023-02-01T12:43:52.174Z,99650.22
2023-02-01T12:46:54.198Z,99651.91
2023-02-01T12:49:33.012Z,99633.03
2023-02-01T12:52:05.914Z,99624.41
2023-02-01T12:54:42.751Z,99632.13
2023-02-01T12:57:23.770Z,99663.94
2023-02-01T13:00:03.256Z,99661.31
2023-02-01T13:03:13.789Z,99656.13
2023-02-01T13:05:52.778Z,99663.00
2023-02-01T13:08:26.499Z,99663.03
2023-02-01T13:11:35.883Z,99679.38
2023-02-01T13:14:51.141Z,99685.41
2023-02-01T13:17:43.373Z,99687.13
2023-02-01T13:20:50.986Z,99688.81
2023-02-01T13:23:49.053Z,99702.63
2023-02-01T13:26:36.095Z,99697.44
2023-02-01T13:29:27.743Z,99693.13
2023-02-01T13:33:51.189Z,99700.88
2023-02-01T13:36:06.564Z,99706.06
2023-02-01T13:39:17.930Z,99702.63
2023-02-01T13:42:19.034Z,99713.81
2023-02-01T13:45:11.262Z,99701.75
2023-02-01T13:48:07.254Z,99717.25
2023-02-01T13:50:57.669Z,99726.72
2023-02-01T13:53:57.101Z,99718.13
2023-02-01T13:56:46.435Z,99660.47
2023-02-01T14:00:12.987Z,99728.44
2023-02-01T14:03:03.344Z,99735.34
2023-02-01T14:05:50.767Z,99733.59
2023-02-01T14:08:58.447Z,99743.13
2023-02-01T14:11:59.338Z,99745.72
2023-02-01T14:14:46.279Z,99748.31
2023-02-01T14:17:33.225Z,99750.03
2023-02-01T14:20:57.750Z,99757.78
2023-02-01T14:23:47.150Z,99762.97
2023-02-01T14:26:38.372Z,99764.69
2023-02-01T14:29:37.412Z,99750.94
2023-02-01T14:32:40.652Z,99757.78
2023-02-01T14:35:38.380Z,99765.56
2023-02-01T14:38:25.448Z,99775.06
2023-02-01T14:40:52.531Z,99767.28
2023-02-01T14:43:52.493Z,99774.22
2023-02-01T14:46:20.223Z,99771.66
2023-02-01T14:48:48.361Z,99775.97
2023-02-01T14:51:18.699Z,99789.78
2023-02-01T14:53:47.832Z,99794.97
2023-02-01T14:56:21.449Z,99802.75
2023-02-01T14:59:05.235Z,99806.22
2023-02-01T15:01:35.070Z,99814.84
2023-02-01T15:04:12.975Z,99806.25
2023-02-01T15:06:42.811Z,99812.28
2023-02-01T15:09:27.774Z,99814.88
2023-02-01T15:11:57.505Z,99820.91
2023-02-01T15:14:25.277Z,99765.81
2023-02-01T15:16:54.849Z,99826.97
2023-02-01T15:19:24.264Z,99830.44
2023-02-01T15:21:57.039Z,99834.75
2023-02-01T15:24:26.889Z,99838.22
2023-02-01T15:26:55.533Z,99850.31
2023-02-01T15:29:28.881Z,99840.84
2023-02-01T15:31:56.053Z,99844.28
2023-02-01T15:34:23.148Z,99833.94
2023-02-01T15:37:02.592Z,99841.69
2023-02-01T15:39:32.483Z,99852.94
2023-02-01T15:42:10.009Z,99862.41
2023-02-01T15:44:43.113Z,99858.97
2023-02-01T15:47:21.075Z,99866.72
2023-02-01T15:49:56.543Z,99875.38
2023-02-01T15:52:26.725Z,99867.59
2023-02-01T15:54:57.862Z,99852.97
2023-02-01T15:57:32.755Z,99876.25
2023-02-01T16:00:08.599Z,99887.44
2023-02-01T16:02:54.406Z,99900.38
2023-02-01T16:06:03.193Z,99819.38
2023-02-01T16:08:51.910Z,99886.63
2023-02-01T16:11:54.128Z,99902.16
2023-02-01T16:14:41.601Z,99899.56
2023-02-01T16:17:29.428Z,99896.97
2023-02-01T16:20:16.383Z,99902.16
2023-02-01T16:23:03.351Z,99911.63
2023-02-01T16:25:50.311Z,99920.25
2023-02-01T16:28:37.405Z,99921.09
2023-02-01T16:31:24.528Z,99928.88
2023-02-01T16:34:12.523Z,99931.44
2023-02-01T16:36:59.629Z,99935.75
2023-02-01T16:39:46.592Z,99934.03
2023-02-01T16:42:35.817Z,99940.91
2023-02-01T16:45:23.024Z,99935.75
2023-02-01T16:48:13.460Z,99931.44
2023-02-01T16:51:00.389Z,99946.97
2023-02-01T16:53:54.671Z,99943.50
2023-02-01T16:56:44.933Z,99905.56
2023-02-01T16:59:32.147Z,99953.84
2023-02-01T17:02:18.935Z,99934.00
2023-02-01T17:05:06.290Z,99958.19
2023-02-01T17:07:53.240Z,99955.59
2023-02-01T17:10:49.222Z,99957.31
2023-02-01T17:13:17.557Z,99955.59
2023-02-01T17:15:57.627Z,99953.00
2023-02-01T17:18:26.280Z,99971.94
2023-02-01T17:21:13.124Z,99978.00
2023-02-01T17:24:00.335Z,99991.78
2023-02-01T17:26:47.578Z,99994.38
2023-02-01T17:29:34.635Z,99996.97
2023-02-01T17:32:22.712Z,99920.13
2023-02-01T17:35:09.747Z,100013.31
2023-02-01T17:37:58.213Z,100011.59
2023-02-01T17:40:45.173Z,100017.66
2023-02-01T17:43:37.018Z,100019.34
2023-02-01T17:46:11.106Z,100024.50
2023-02-01T17:48:39.134Z,100015.88
2023-02-01T17:51:14.730Z,100042.63
2023-02-01T17:53:41.817Z,100038.31
2023-02-01T17:56:14.015Z,100028.78
2023-02-01T17:58:41.575Z,100016.72
2023-02-01T18:01:14.497Z,100047.78
2023-02-01T18:03:41.959Z,100052.09
2023-02-01T18:06:14.944Z,100048.63
2023-02-01T18:09:02.634Z,99996.81
2023-02-01T18:11:49.522Z,100055.53
2023-02-01T18:14:36.471Z,99994.19
2023-02-01T18:17:23.353Z,100057.25
2023-02-01T18:20:10.167Z,100053.75
2023-02-01T18:22:57.158Z,100079.66
2023-02-01T18:25:48.079Z,100075.34
2023-02-01T18:28:35.886Z,100076.22
2023-02-01T18:31:25.349Z,100072.75
2023-02-01T18:34:14.248Z,100075.34
2023-02-01T18:37:01.199Z,100081.38
2023-02-01T18:39:48.014Z,100031.22
2023-02-01T18:42:35.666Z,100091.72
2023-02-01T18:45:23.305Z,100101.19
2023-02-01T18:48:11.210Z,100098.59
2023-02-01T18:51:01.826Z,100093.38
2023-02-01T18:53:49.170Z,100109.78
2023-02-01T18:56:41.267Z,100108.03
2023-02-01T18:59:28.773Z,100120.97
2023-02-01T19:02:15.698Z,100124.41
2023-02-01T19:05:02.732Z,100119.19
2023-02-01T19:07:49.759Z,100139.03
2023-02-01T19:10:42.467Z,100141.59
2023-02-01T19:13:35.220Z,100145.94
2023-02-01T19:16:30.054Z,100132.09
2023-02-01T19:19:17.181Z,100151.94
2023-02-01T19:22:04.322Z,100156.25
2023-02-01T19:24:53.508Z,100147.59
2023-02-01T19:27:41.435Z,100159.66
2023-02-01T19:30:30.229Z,100172.56
2023-02-01T19:33:17.226Z,100169.16
2023-02-01T19:36:04.404Z,100174.31
2023-02-01T19:38:51.883Z,100172.56
2023-02-01T19:41:39.381Z,100175.13
2023-02-01T19:44:06.636Z,100167.31
2023-02-01T19:46:33.847Z,100138.78
2023-02-01T19:49:01.234Z,100172.47
2023-02-01T19:51:48.179Z,100199.22
2023-02-01T19:54:36.395Z,100162.09
2023-02-01T19:57:23.744Z,100145.59
2023-02-01T20:00:15.839Z,100206.06
2023-02-01T20:03:03.345Z,100203.47
2023-02-01T20:05:50.294Z,100212.91
2023-02-01T20:08:37.413Z,100206.88
2023-02-01T20:11:27.574Z,100212.06
2023-02-01T20:14:16.212Z,100214.63
2023-02-01T20:17:03.681Z,100218.91
2023-02-01T20:19:51.244Z,100165.19
2023-02-01T20:22:38.307Z,100230.06
2023-02-01T20:25:25.822Z,100230.00
2023-02-01T20:28:13.784Z,100227.38
2023-02-01T20:31:00.990Z,100226.47
2023-02-01T20:33:48.123Z,100240.28
2023-02-01T20:36:35.305Z,100242.00
2023-02-01T20:39:22.252Z,100248.00
2023-02-01T20:42:09.197Z,100255.72
2023-02-01T20:44:56.218Z,100254.00
2023-02-01T20:47:43.441Z,100169.09
2023-02-01T20:50:31.228Z,100223.59
2023-02-01T20:53:26.552Z,100265.19
2023-02-01T20:56:16.274Z,100221.84
